createdAt,value
2019-04-07T00:00:22.499Z,63.67
2019-04-07T00:02:50.065Z,87.50
2019-04-07T00:05:17.632Z,75.87
2019-04-07T00:07:45.202Z,95.60
2019-04-07T00:10:13.432Z,96.78
2019-04-07T00:12:41.255Z,88.63
2019-04-07T00:15:09.502Z,71.00
2019-04-07T00:17:37.485Z,55.97
2019-04-07T00:20:04.691Z,54.13
2019-04-07T00:22:32.389Z,45.20
2019-04-07T00:24:59.862Z,47.07
2019-04-07T00:27:27.430Z,40.00
2019-04-07T00:29:56.358Z,40.67
2019-04-07T00:32:23.521Z,45.57
2019-04-07T00:34:51.080Z,41.20
2019-04-07T00:37:18.634Z,45.10
2019-04-07T00:39:46.654Z,47.00
2019-04-07T00:42:15.492Z,43.33
2019-04-07T00:44:43.296Z,41.00
2019-04-07T00:47:10.688Z,42.10
2019-04-07T00:49:38.286Z,47.10
2019-04-07T00:52:06.163Z,44.10
2019-04-07T00:54:35.916Z,41.67
2019-04-07T00:57:03.263Z,44.57
2019-04-07T00:59:30.888Z,43.80
2019-04-07T01:01:58.426Z,42.43
2019-04-07T01:04:28.489Z,43.00
2019-04-07T01:06:57.529Z,43.67
2019-04-07T01:09:25.042Z,44.00
2019-04-07T01:11:52.713Z,44.77
2019-04-07T01:14:20.368Z,42.33
2019-04-07T01:16:48.215Z,45.23
2019-04-07T01:19:15.534Z,44.27
2019-04-07T01:21:43.577Z,40.17
2019-04-07T01:24:10.700Z,39.93
2019-04-07T01:26:38.258Z,44.20
2019-04-07T01:29:05.815Z,45.20
2019-04-07T01:31:33.952Z,42.43
2019-04-07T01:34:00.990Z,44.30
2019-04-07T01:36:29.335Z,41.23
2019-04-07T01:38:59.982Z,41.90
2019-04-07T01:44:37.535Z,45.75
2019-04-07T01:47:10.015Z,40.50
2019-04-07T01:49:38.574Z,40.73
2019-04-07T01:52:21.183Z,38.90
2019-04-07T01:54:54.801Z,43.20
2019-04-07T01:57:36.634Z,40.67
2019-04-07T02:00:11.143Z,41.40
2019-04-07T02:02:41.325Z,43.03
2019-04-07T02:05:11.934Z,49.20
2019-04-07T02:07:43.597Z,47.10
2019-04-07T02:10:13.692Z,48.43
2019-04-07T02:12:44.591Z,42.00
2019-04-07T02:15:13.892Z,42.75
2019-04-07T02:17:59.327Z,42.90
2019-04-07T02:20:38.734Z,38.97
2019-04-07T02:23:07.644Z,39.90
2019-04-07T02:25:37.320Z,42.27
2019-04-07T02:28:06.407Z,40.47
2019-04-07T02:30:49.190Z,39.20
2019-04-07T02:33:31.640Z,37.37
2019-04-07T02:36:22.824Z,46.93
2019-04-07T02:38:44.098Z,38.80
2019-04-07T02:41:13.643Z,43.60
2019-04-07T02:43:41.225Z,50.63
2019-04-07T02:46:15.777Z,39.60
2019-04-07T02:48:48.905Z,42.33
2019-04-07T02:51:17.928Z,39.30
2019-04-07T02:56:45.034Z,44.85
2019-04-07T02:59:16.180Z,39.93
2019-04-07T03:01:49.707Z,45.07
2019-04-07T03:04:23.106Z,43.37
2019-04-07T03:07:08.430Z,46.03
2019-04-07T03:09:36.541Z,42.93
2019-04-07T03:12:09.063Z,40.00
2019-04-07T03:14:43.055Z,37.73
2019-04-07T03:17:11.778Z,39.70
2019-04-07T03:19:56.203Z,39.73
2019-04-07T03:22:36.739Z,39.27
2019-04-07T03:25:11.672Z,43.80
2019-04-07T03:27:52.758Z,44.30
2019-04-07T03:30:22.415Z,39.97
2019-04-07T03:32:54.392Z,42.07
2019-04-07T03:35:32.823Z,46.30
2019-04-07T03:38:02.819Z,39.07
2019-04-07T03:40:44.110Z,44.70
2019-04-07T03:43:13.431Z,44.63
2019-04-07T03:45:55.959Z,41.60
2019-04-07T03:48:33.479Z,46.80
2019-04-07T03:51:08.943Z,39.30
2019-04-07T03:53:35.855Z,42.30
2019-04-07T03:56:04.062Z,42.00
2019-04-07T03:58:37.579Z,44.13
2019-04-07T04:04:05.635Z,43.45
2019-04-07T04:06:38.949Z,42.93
2019-04-07T04:09:17.419Z,39.63
2019-04-07T04:14:41.938Z,44.95
2019-04-07T04:17:09.605Z,36.37
2019-04-07T04:19:37.869Z,52.00
2019-04-07T04:22:05.934Z,52.23
2019-04-07T04:24:35.096Z,48.20
2019-04-07T04:27:02.681Z,51.87
2019-04-07T04:29:30.238Z,48.00
2019-04-07T04:31:57.808Z,43.70
2019-04-07T04:34:25.368Z,45.63
2019-04-07T04:36:53.085Z,42.80
2019-04-07T04:39:21.212Z,43.63
2019-04-07T04:41:49.019Z,47.13
2019-04-07T04:44:16.500Z,43.47
2019-04-07T04:46:43.369Z,46.83
2019-04-07T04:49:11.955Z,41.50
2019-04-07T04:51:40.947Z,38.63
2019-04-07T04:54:07.283Z,40.20
2019-04-07T04:56:36.152Z,40.63
2019-04-07T04:59:04.036Z,40.20
2019-04-07T05:01:31.046Z,40.20
2019-04-07T05:03:58.498Z,38.00
2019-04-07T05:06:27.977Z,39.83
2019-04-07T05:08:55.552Z,39.10
2019-04-07T05:11:23.844Z,42.13
2019-04-07T05:13:51.489Z,47.67
2019-04-07T05:16:19.721Z,40.20
2019-04-07T05:18:46.755Z,40.93
2019-04-07T05:21:14.985Z,46.43
2019-04-07T05:23:41.926Z,39.33
2019-04-07T05:26:11.004Z,40.43
2019-04-07T05:28:40.473Z,41.40
2019-04-07T05:31:07.595Z,41.87
2019-04-07T05:33:35.540Z,46.10
2019-04-07T05:36:04.852Z,39.03
2019-04-07T05:38:32.351Z,40.07
2019-04-07T05:41:00.312Z,41.63
2019-04-07T05:43:27.521Z,39.87
2019-04-07T05:45:55.475Z,46.10
2019-04-07T05:48:23.809Z,47.37
2019-04-07T05:50:51.918Z,39.23
2019-04-07T05:53:19.509Z,44.03
2019-04-07T05:55:47.554Z,39.40
2019-04-07T05:58:16.607Z,41.70
2019-04-07T06:00:47.024Z,40.97
2019-04-07T06:03:12.175Z,48.13
2019-04-07T06:05:39.988Z,69.20
2019-04-07T06:08:22.450Z,53.53
2019-04-07T06:10:34.898Z,43.40
2019-04-07T06:13:02.207Z,45.77
2019-04-07T06:15:30.287Z,46.03
2019-04-07T06:18:01.380Z,38.17
2019-04-07T06:20:26.704Z,39.27
2019-04-07T06:22:54.653Z,39.97
2019-04-07T06:25:22.640Z,42.50
2019-04-07T06:27:50.206Z,40.30
2019-04-07T06:30:17.767Z,42.90
2019-04-07T06:32:46.224Z,38.93
2019-04-07T06:35:13.964Z,52.83
2019-04-07T06:37:40.702Z,47.10
2019-04-07T06:40:08.970Z,45.60
2019-04-07T06:42:36.473Z,49.63
2019-04-07T06:45:05.358Z,53.03
2019-04-07T06:47:50.794Z,59.07
2019-04-07T06:50:23.340Z,55.80
2019-04-07T06:53:01.324Z,57.57
2019-04-07T06:55:35.231Z,50.60
2019-04-07T06:58:08.376Z,53.60
2019-04-07T07:00:35.263Z,95.73
2019-04-07T07:03:04.422Z,46.43
2019-04-07T07:05:37.322Z,32.80
2019-04-07T07:08:08.425Z,28.70
2019-04-07T07:10:42.682Z,36.80
2019-04-07T07:13:30.637Z,54.00
2019-04-07T07:16:00.466Z,34.60
2019-04-07T07:18:36.422Z,37.30
2019-04-07T07:21:19.128Z,35.10
2019-04-07T07:23:49.061Z,36.97
2019-04-07T07:26:15.012Z,37.03
2019-04-07T07:28:44.996Z,37.90
2019-04-07T07:31:11.107Z,31.50
2019-04-07T07:33:41.773Z,34.10
2019-04-07T07:36:07.067Z,30.17
2019-04-07T07:38:34.650Z,30.50
2019-04-07T07:41:03.634Z,31.40
2019-04-07T07:43:30.263Z,34.30
2019-04-07T07:45:59.043Z,27.43
2019-04-07T07:48:27.335Z,30.87
2019-04-07T07:50:53.789Z,36.23
2019-04-07T07:53:23.708Z,27.67
2019-04-07T07:55:49.651Z,24.50
2019-04-07T07:58:16.522Z,27.30
2019-04-07T08:00:44.841Z,25.00
2019-04-07T08:03:12.099Z,29.93
2019-04-07T08:05:39.291Z,36.67
2019-04-07T08:08:06.864Z,33.40
2019-04-07T08:10:35.027Z,28.20
2019-04-07T08:13:05.114Z,37.30
2019-04-07T08:15:32.262Z,41.00
2019-04-07T08:17:57.375Z,44.37
2019-04-07T08:20:24.877Z,34.63
2019-04-07T08:22:52.435Z,36.53
2019-04-07T08:25:22.303Z,32.07
2019-04-07T08:27:47.703Z,33.43
2019-04-07T08:30:15.243Z,32.10
2019-04-07T08:32:43.200Z,31.00
2019-04-07T08:35:10.421Z,32.30
2019-04-07T08:37:38.352Z,36.17
2019-04-07T08:40:07.701Z,35.00
2019-04-07T08:42:33.457Z,34.87
2019-04-07T08:45:03.303Z,33.10
2019-04-07T08:47:30.246Z,29.50
2019-04-07T08:49:57.958Z,30.40
2019-04-07T08:52:26.023Z,28.40
2019-04-07T08:54:53.517Z,28.67
2019-04-07T08:57:22.606Z,30.00
2019-04-07T08:59:50.666Z,20.40
2019-04-07T09:02:19.220Z,23.17
2019-04-07T09:04:49.734Z,26.20
2019-04-07T09:07:14.076Z,24.60
2019-04-07T09:09:46.637Z,27.47
2019-04-07T09:12:09.279Z,23.33
2019-04-07T09:14:39.847Z,25.70
2019-04-07T09:17:11.705Z,19.10
2019-04-07T09:19:54.804Z,20.23
2019-04-07T09:25:27.186Z,21.77
2019-04-07T09:27:54.087Z,24.93
2019-04-07T09:30:24.949Z,23.87
2019-04-07T09:33:07.080Z,27.60
2019-04-07T09:35:38.939Z,22.50
2019-04-07T09:38:27.344Z,28.30
2019-04-07T09:44:05.225Z,23.35
2019-04-07T09:46:33.261Z,22.80
2019-04-07T09:49:01.322Z,26.53
2019-04-07T09:54:34.983Z,23.05
2019-04-07T09:57:22.309Z,23.20
2019-04-07T10:00:07.131Z,24.63
2019-04-07T10:02:48.026Z,23.73
2019-04-07T10:08:19.525Z,23.00
2019-04-07T10:10:50.943Z,21.97
2019-04-07T10:13:19.425Z,20.03
2019-04-07T10:15:54.261Z,29.37
2019-04-07T10:18:33.501Z,29.57
2019-04-07T10:21:05.334Z,26.70
2019-04-07T10:23:52.490Z,21.87
2019-04-07T10:26:21.994Z,21.63
2019-04-07T10:28:51.690Z,21.97
2019-04-07T10:34:19.012Z,22.77
2019-04-07T10:36:51.148Z,21.93
2019-04-07T10:39:20.900Z,19.70
2019-04-07T10:41:55.265Z,20.20
2019-04-07T10:47:18.391Z,20.52
2019-04-07T10:49:57.904Z,26.53
2019-04-07T10:52:21.401Z,19.80
2019-04-07T10:54:58.379Z,21.30
2019-04-07T10:57:46.975Z,18.77
2019-04-07T11:00:26.795Z,19.63
2019-04-07T11:05:50.432Z,16.55
2019-04-07T11:08:34.339Z,16.23
2019-04-07T11:11:07.877Z,45.40
2019-04-07T11:13:37.014Z,37.00
2019-04-07T11:16:10.987Z,19.40
2019-04-07T11:18:40.265Z,21.10
2019-04-07T11:21:09.526Z,42.80
2019-04-07T11:23:45.248Z,27.20
2019-04-07T11:26:16.773Z,22.37
2019-04-07T11:28:44.592Z,19.43
2019-04-07T11:31:16.830Z,14.63
2019-04-07T11:33:44.981Z,20.13
2019-04-07T11:36:12.804Z,17.40
2019-04-07T11:38:56.153Z,19.83
2019-04-07T11:41:27.714Z,15.53
2019-04-07T11:44:09.626Z,11.97
2019-04-07T11:46:38.983Z,18.80
2019-04-07T11:49:21.480Z,13.90
2019-04-07T11:51:52.339Z,15.23
2019-04-07T11:54:35.699Z,20.80
2019-04-07T11:57:04.439Z,11.90
2019-04-07T11:59:34.919Z,10.90
2019-04-07T12:02:07.455Z,13.83
2019-04-07T12:04:35.681Z,8.63
2019-04-07T12:07:08.934Z,9.73
2019-04-07T12:09:51.066Z,7.30
2019-04-07T12:12:24.610Z,8.87
2019-04-07T12:14:54.578Z,9.30
2019-04-07T12:17:25.903Z,8.53
2019-04-07T12:19:58.051Z,11.37
2019-04-07T12:22:28.308Z,9.73
2019-04-07T12:24:59.243Z,8.67
2019-04-07T12:27:24.097Z,13.37
2019-04-07T12:32:54.095Z,11.12
2019-04-07T12:38:23.104Z,11.45
2019-04-07T12:40:56.392Z,9.80
2019-04-07T12:43:26.116Z,9.97
2019-04-07T12:48:56.639Z,10.25
2019-04-07T12:51:28.999Z,11.20
2019-04-07T12:54:07.364Z,9.23
2019-04-07T12:56:34.309Z,11.63
2019-04-07T12:59:17.915Z,9.30
2019-04-07T13:01:49.224Z,16.37
2019-04-07T13:04:34.310Z,8.07
2019-04-07T13:07:05.668Z,8.43
2019-04-07T13:09:37.906Z,7.63
2019-04-07T13:12:05.632Z,10.20
2019-04-07T13:14:40.967Z,7.30
2019-04-07T13:17:31.428Z,9.10
2019-04-07T13:20:00.880Z,8.40
2019-04-07T13:22:32.528Z,9.43
2019-04-07T13:25:18.690Z,7.70
2019-04-07T13:27:44.007Z,10.93
2019-04-07T13:30:17.069Z,9.10
2019-04-07T13:32:55.086Z,8.37
2019-04-07T13:35:38.600Z,6.77
2019-04-07T13:38:09.295Z,6.33
2019-04-07T13:40:40.765Z,8.30
2019-04-07T13:43:13.335Z,5.90
2019-04-07T13:45:46.775Z,6.03
2019-04-07T13:48:30.061Z,9.53
2019-04-07T13:50:57.689Z,5.90
2019-04-07T13:53:29.500Z,5.57
2019-04-07T13:56:10.008Z,7.73
2019-04-07T14:01:38.638Z,7.05
2019-04-07T14:04:10.504Z,7.20
2019-04-07T14:06:37.331Z,12.23
2019-04-07T14:09:07.236Z,6.30
2019-04-07T14:11:58.302Z,9.13
2019-04-07T14:14:19.000Z,10.20
2019-04-07T14:16:48.694Z,8.83
2019-04-07T14:19:32.091Z,9.93
2019-04-07T14:22:06.536Z,13.30
2019-04-07T14:24:52.655Z,11.10
2019-04-07T14:27:37.321Z,11.00
2019-04-07T14:30:20.302Z,12.87
2019-04-07T14:32:49.833Z,11.30
2019-04-07T14:35:20.615Z,13.20
2019-04-07T14:37:49.493Z,11.97
2019-04-07T14:40:22.441Z,13.50
2019-04-07T14:42:52.346Z,11.70
2019-04-07T14:45:27.272Z,12.50
2019-04-07T14:48:09.829Z,14.97
2019-04-07T14:50:53.831Z,31.07
2019-04-07T14:53:22.489Z,20.87
2019-04-07T14:55:56.020Z,13.53
2019-04-07T14:58:29.147Z,18.17
2019-04-07T15:01:02.547Z,19.80
2019-04-07T15:03:27.431Z,29.60
2019-04-07T15:05:56.363Z,13.47
2019-04-07T15:08:30.317Z,20.63
2019-04-07T15:10:58.300Z,11.47
2019-04-07T15:13:28.094Z,9.67
2019-04-07T15:15:53.167Z,11.53
2019-04-07T15:18:21.458Z,21.40
2019-04-07T15:20:49.404Z,16.27
2019-04-07T15:23:17.566Z,8.67
2019-04-07T15:25:46.997Z,16.60
2019-04-07T15:28:12.318Z,19.30
2019-04-07T15:30:40.595Z,16.47
2019-04-07T15:33:11.821Z,11.67
2019-04-07T15:35:36.931Z,19.53
2019-04-07T15:38:05.421Z,12.70
2019-04-07T15:40:36.258Z,16.90
2019-04-07T15:43:04.707Z,11.73
2019-04-07T15:45:30.838Z,10.90
2019-04-07T15:48:00.661Z,22.23
2019-04-07T15:50:30.131Z,18.40
2019-04-07T15:52:55.276Z,21.23
2019-04-07T15:55:26.374Z,12.57
2019-04-07T15:57:53.442Z,8.50
2019-04-07T16:00:18.460Z,30.57
2019-04-07T16:02:46.028Z,26.43
2019-04-07T16:05:13.649Z,20.17
2019-04-07T16:07:40.701Z,19.40
2019-04-07T16:10:08.117Z,22.20
2019-04-07T16:12:44.214Z,18.03
2019-04-07T16:15:04.089Z,17.60
2019-04-07T16:17:33.906Z,22.90
2019-04-07T16:19:58.948Z,11.63
2019-04-07T16:22:28.918Z,25.50
2019-04-07T16:24:57.288Z,12.97
2019-04-07T16:27:26.024Z,12.20
2019-04-07T16:29:52.949Z,10.20
2019-04-07T16:32:20.460Z,11.50
2019-04-07T16:34:48.057Z,11.53
2019-04-07T16:37:15.898Z,15.83
2019-04-07T16:39:43.247Z,12.00
2019-04-07T16:42:10.864Z,10.10
2019-04-07T16:44:42.611Z,12.27
2019-04-07T16:47:17.219Z,13.50
2019-04-07T16:49:35.864Z,15.73
2019-04-07T16:52:03.588Z,20.20
2019-04-07T16:54:31.397Z,14.33
2019-04-07T16:57:00.399Z,15.27
2019-04-07T16:59:27.956Z,10.80
2019-04-07T17:01:55.521Z,12.10
2019-04-07T17:04:23.091Z,22.83
2019-04-07T17:07:01.712Z,12.23
2019-04-07T17:09:18.269Z,11.70
2019-04-07T17:11:46.102Z,15.43
2019-04-07T17:14:16.234Z,16.00
2019-04-07T17:16:45.514Z,13.63
2019-04-07T17:19:11.514Z,13.57
2019-04-07T17:21:41.126Z,13.53
2019-04-07T17:24:08.622Z,12.37
2019-04-07T17:26:38.259Z,20.30
2019-04-07T17:29:04.427Z,11.90
2019-04-07T17:31:32.672Z,12.43
2019-04-07T17:34:00.492Z,11.20
2019-04-07T17:36:28.220Z,13.60
2019-04-07T17:38:58.901Z,10.77
2019-04-07T17:41:26.462Z,10.63
2019-04-07T17:44:00.669Z,12.93
2019-04-07T17:46:28.598Z,11.93
2019-04-07T17:48:57.653Z,12.50
2019-04-07T17:51:23.978Z,17.13
2019-04-07T17:53:57.171Z,15.90
2019-04-07T17:56:29.799Z,18.47
2019-04-07T17:58:58.569Z,12.40
2019-04-07T18:04:23.350Z,14.70
2019-04-07T18:09:53.307Z,12.95
2019-04-07T18:12:27.074Z,16.77
2019-04-07T18:15:03.607Z,15.20
2019-04-07T18:17:30.047Z,17.60
2019-04-07T18:20:07.173Z,15.07
2019-04-07T18:22:31.511Z,16.07
2019-04-07T18:25:16.151Z,15.30
2019-04-07T18:27:59.940Z,14.50
2019-04-07T18:30:34.483Z,20.73
2019-04-07T18:33:00.938Z,17.63
2019-04-07T18:35:39.268Z,19.60
2019-04-07T18:38:11.422Z,12.07
2019-04-07T18:40:39.667Z,14.77
2019-04-07T18:43:08.151Z,13.53
2019-04-07T18:45:36.362Z,14.20
2019-04-07T18:48:27.245Z,17.97
2019-04-07T18:50:54.653Z,17.40
2019-04-07T18:53:27.694Z,13.07
2019-04-07T18:58:52.536Z,17.48
2019-04-07T19:01:18.583Z,20.90
2019-04-07T19:03:53.292Z,17.23
2019-04-07T19:09:32.258Z,22.85
2019-04-07T19:12:05.818Z,20.43
2019-04-07T19:14:52.102Z,17.80
2019-04-07T19:17:21.694Z,15.80
2019-04-07T19:19:59.452Z,22.10
2019-04-07T19:22:26.735Z,13.53
2019-04-07T19:24:59.051Z,21.97
2019-04-07T19:30:46.893Z,20.12
2019-04-07T19:33:17.865Z,89.70
2019-04-07T19:38:52.196Z,19.35
2019-04-07T19:41:20.435Z,16.07
2019-04-07T19:43:48.060Z,15.03
2019-04-07T19:46:30.639Z,18.07
2019-04-07T19:49:15.054Z,12.10
2019-04-07T19:51:41.719Z,17.13
2019-04-07T19:54:17.693Z,15.50
2019-04-07T19:56:46.435Z,19.13
2019-04-07T19:59:19.495Z,21.93
2019-04-07T20:01:46.258Z,14.30
2019-04-07T20:04:23.736Z,21.30
2019-04-07T20:07:00.768Z,24.10
2019-04-07T20:09:39.483Z,16.50
2019-04-07T20:15:09.126Z,14.43
2019-04-07T20:17:54.786Z,14.10
2019-04-07T20:20:19.506Z,16.73
2019-04-07T20:22:56.396Z,61.37
2019-04-07T20:25:24.671Z,176.63
2019-04-07T20:27:59.049Z,44.10
2019-04-07T20:33:25.012Z,28.15
2019-04-07T20:36:17.727Z,40.50
2019-04-07T20:38:44.285Z,27.60
2019-04-07T20:41:17.155Z,37.10
2019-04-07T20:43:46.652Z,33.10
2019-04-07T20:46:21.540Z,40.00
2019-04-07T20:48:56.570Z,29.80
2019-04-07T20:51:25.393Z,22.43
2019-04-07T20:53:53.694Z,22.37
2019-04-07T20:56:27.827Z,20.23
2019-04-07T21:02:03.439Z,14.30
2019-04-07T21:04:39.577Z,16.07
2019-04-07T21:07:21.237Z,16.73
2019-04-07T21:10:09.488Z,15.73
2019-04-07T21:12:34.199Z,14.90
2019-04-07T21:15:21.022Z,15.03
2019-04-07T21:17:41.590Z,16.03
2019-04-07T21:20:24.030Z,14.00
2019-04-07T21:23:09.383Z,14.83
2019-04-07T21:25:39.520Z,15.33
2019-04-07T21:28:12.575Z,14.30
2019-04-07T21:30:43.017Z,19.73
2019-04-07T21:33:15.249Z,14.03
2019-04-07T21:38:39.208Z,18.58
2019-04-07T21:44:09.144Z,18.50
2019-04-07T21:49:38.256Z,16.02
2019-04-07T21:52:07.557Z,15.20
2019-04-07T21:54:39.618Z,20.03
2019-04-07T21:57:14.866Z,17.70
2019-04-07T21:59:47.862Z,14.33
2019-04-07T22:02:18.334Z,16.53
2019-04-07T22:04:50.609Z,18.90
2019-04-07T22:10:09.505Z,11.98
2019-04-07T22:12:37.848Z,13.20
2019-04-07T22:15:04.667Z,17.97
2019-04-07T22:17:34.428Z,20.40
2019-04-07T22:20:01.480Z,10.70
2019-04-07T22:22:31.094Z,11.77
2019-04-07T22:25:01.210Z,10.63
2019-04-07T22:27:28.673Z,14.03
2019-04-07T22:29:56.570Z,10.60
2019-04-07T22:32:24.345Z,11.00
2019-04-07T22:34:50.906Z,7.97
2019-04-07T22:37:22.176Z,9.33
2019-04-07T22:39:49.148Z,13.20
2019-04-07T22:42:17.157Z,20.50
2019-04-07T22:44:43.955Z,14.70
2019-04-07T22:47:13.143Z,19.80
2019-04-07T22:49:39.148Z,15.13
2019-04-07T22:52:07.567Z,21.60
2019-04-07T22:54:34.862Z,13.53
2019-04-07T22:57:02.778Z,13.03
2019-04-07T22:59:30.312Z,13.20
2019-04-07T23:01:59.778Z,14.20
2019-04-07T23:04:26.460Z,12.63
2019-04-07T23:06:54.019Z,16.10
2019-04-07T23:09:21.849Z,15.13
2019-04-07T23:11:49.188Z,11.93
2019-04-07T23:14:17.934Z,12.33
2019-04-07T23:16:46.478Z,14.30
2019-04-07T23:19:14.545Z,12.30
2019-04-07T23:21:42.100Z,10.47
2019-04-07T23:24:09.728Z,11.20
2019-04-07T23:26:37.294Z,12.70
2019-04-07T23:29:05.754Z,20.73
2019-04-07T23:31:32.463Z,13.90
2019-04-07T23:34:02.806Z,12.00
2019-04-07T23:36:30.555Z,14.60
2019-04-07T23:38:58.140Z,13.83
2019-04-07T23:41:25.686Z,14.05
2019-04-07T23:43:54.008Z,12.67
2019-04-07T23:46:25.720Z,11.40
2019-04-07T23:48:51.817Z,9.47
2019-04-07T23:51:20.676Z,10.10
2019-04-07T23:54:00.920Z,11.20
2019-04-07T23:56:29.394Z,9.93
2019-04-07T23:58:56.269Z,12.70
